San Francisco, California
Traffic Map
Current Weather Conditions
San Francisco, California
Scattered Clouds
Scattered Clouds
19°
Feels Like: 19°
Wind Chill: 19° Ceiling: Unl
Heat Index: 19° Visibility: 10mi
Dew Point: 14° Wind: 18mph
Humidity: 73% Direction: 290° (WNW)
Pressure: 29.8in Gusts: 0mph
Raw Report DataKSFO 150156Z 29016KT 10SM FEW011 SCT018 19/14 A2980 RMK AO2 SLP091 T01940144 $
Traffic Incident Summary
Active as of:
Severity:
Category:
InformationThere was an issue retrieving the traffic information for this location. Please try a different location or try again shortly.
Advertisements
Track Severe Weather on mobile